| Date | Time | Temp. (oF) | Dew Point (oF) | Rel. Hum. (%) | Press. (in.) | Wind Dir. | Wind Speed (mph) | Hourly Rainfall (in.) |
|
|---|---|---|---|---|---|---|---|---|---|
| 1 | 12/20 | 00:00 | 22 | 12 | 66 | 30.69 | WNW | 0 | 0.00 |
| 2 | 12/19 | 23:00 | 23 | 12 | 63 | 30.69 | WNW | 1 | 0.00 |
| 3 | 12/19 | 22:00 | 24 | 11 | 59 | 30.69 | WNW | 0 | 0.00 |
| 4 | 12/19 | 21:00 | 24 | 10 | 57 | 30.69 | WNW | 0 | 0.00 |
| 5 | 12/19 | 20:00 | 25 | 11 | 56 | 30.69 | WNW | 0 | 0.00 |
| 6 | 12/19 | 19:00 | 26 | 11 | 54 | 30.69 | WNW | 7 | 0.00 |
| 7 | 12/19 | 18:00 | 27 | 12 | 53 | 30.69 | WNW | 3 | 0.00 |
| 8 | 12/19 | 17:00 | 28 | 12 | 52 | 30.68 | WNW | 5 | 0.00 |
| 9 | 12/19 | 16:00 | 29 | 12 | 49 | 30.67 | WNW | 3 | 0.00 |
| 10 | 12/19 | 15:00 | 30 | 13 | 49 | 30.66 | WNW | 3 | 0.00 |
| 11 | 12/19 | 14:00 | 30 | 11 | 45 | 30.68 | WNW | 8 | 0.00 |
| 12 | 12/19 | 13:00 | 29 | 11 | 47 | 30.70 | WNW | 6 | 0.00 |
| 13 | 12/19 | 12:00 | 28 | 11 | 50 | 30.72 | WNW | 7 | 0.00 |
| 14 | 12/19 | 11:00 | 27 | 10 | 49 | 30.75 | WNW | 6 | 0.00 |
| 15 | 12/19 | 10:00 | 26 | 12 | 56 | 30.76 | WNW | 5 | 0.00 |
| 16 | 12/19 | 09:00 | 23 | 10 | 58 | 30.75 | WNW | 4 | 0.00 |
| 17 | 12/19 | 08:00 | 23 | 11 | 61 | 30.74 | WNW | 7 | 0.00 |
| 18 | 12/19 | 07:00 | 24 | 11 | 59 | 30.71 | WNW | 6 | 0.00 |
| 19 | 12/19 | 06:00 | 25 | 11 | 57 | 30.70 | WNW | 7 | 0.00 |
| 20 | 12/19 | 05:00 | 25 | 11 | 57 | 30.67 | WNW | 12 | 0.00 |
| 21 | 12/19 | 04:00 | 27 | 14 | 60 | 30.65 | WNW | 7 | 0.00 |
| 22 | 12/19 | 03:00 | 27 | 15 | 61 | 30.60 | WNW | 10 | 0.00 |
| 23 | 12/19 | 02:00 | 28 | 14 | 57 | 30.57 | WNW | 4 | 0.00 |
| 24 | 12/19 | 01:00 | 29 | 16 | 60 | 30.53 | WNW | 7 | 0.00 |